메인 페이지
METAR-TAF:

METAR-TAF

공항 :

Lakeland, 플로리다, 미국

위도: 27-59N, 경도: 082-01W, 고도: 43m

현재 날씨관측

예보는 39분 전, 18:45시(UTC)에 발표되었습니다.
북북동10kt, 순간 최대 풍속 15kt
온도 25°C
습도 44%
기압 1018 hPa
시정: 16.1km
맑음

METAR: KLAL 231845Z 02010G15KT 10SM SKC 25/12 A3006

시각: 14:24 (19:24 UTC)

예보

예보는 2 시간 4분 전, 17:20시(UTC)에 발표되었습니다.
예보 대상 시간: 23일 18시부터 24일 18시까지 (UTC)
북북동10kt, 순간 최대 풍속 16kt
시정: 10km
고도 4000ft 상공 구름 조금
23일 2200시부터 (UTC)
북북동8kt
시정: 10km
맑음
24일 0300시부터 (UTC)
북동5kt
시정: 10km
맑음
24일 1500시부터 (UTC)
동북동10kt
시정: 10km
고도 3000ft 상공 구름 보통

TAF: KLAL 231720Z 2318/2418 02010G16KT P6SM FEW040 FM232200 03008KT P6SM SKC FM240300 05005KT P6SM SKC FM241500 06010KT P6SM SCT030

4,000개 이상의 공항 관측 자료 및 예보 (METAR 및 TAF 보고).

지도상에서 검색 가능한 기상관측소가 노란 점과 빨간 점으로 표시되어 있습니다.

기상관측소 명을 보려면 표시 위로 마우스를 이동하세요.

날씨 관측과 예보를 보려면 클릭하세요.

지도 변경 : 확대하려면 엑스 표시가 있는 녹색 버튼, 축소하려면 빼기 표시가 있는 녹색 버튼, 다음 페이지의 지도를 보려면 녹색 화살표를 클릭하세요.


METAR-TAF: